createdAt,value
2018-11-27T00:02:05.573Z,31.43
2018-11-27T00:04:33.649Z,28.67
2018-11-27T00:07:01.992Z,30.47
2018-11-27T00:09:30.357Z,30.63
2018-11-27T00:11:58.480Z,31.13
2018-11-27T00:14:26.519Z,31.97
2018-11-27T00:16:55.089Z,30.63
2018-11-27T00:19:23.155Z,30.33
2018-11-27T00:21:51.220Z,28.90
2018-11-27T00:24:19.289Z,31.30
2018-11-27T00:26:47.376Z,29.00
2018-11-27T00:29:15.479Z,29.67
2018-11-27T00:31:43.631Z,29.57
2018-11-27T00:34:11.745Z,32.33
2018-11-27T00:36:39.837Z,28.77
2018-11-27T00:39:09.385Z,27.47
2018-11-27T00:41:38.201Z,31.30
2018-11-27T00:44:06.277Z,30.13
2018-11-27T00:46:34.356Z,29.57
2018-11-27T00:49:02.450Z,28.93
2018-11-27T00:51:30.634Z,28.37
2018-11-27T00:53:58.739Z,28.70
2018-11-27T00:56:26.886Z,29.00
2018-11-27T00:58:55.053Z,27.77
2018-11-27T01:01:23.220Z,29.47
2018-11-27T01:03:51.535Z,30.00
2018-11-27T01:06:19.672Z,27.00
2018-11-27T01:08:48.185Z,29.00
2018-11-27T01:11:16.291Z,30.63
2018-11-27T01:13:44.394Z,30.37
2018-11-27T01:16:12.477Z,31.37
2018-11-27T01:18:40.641Z,27.60
2018-11-27T01:21:08.778Z,29.30
2018-11-27T01:23:36.916Z,27.73
2018-11-27T01:26:05.400Z,32.47
2018-11-27T01:28:33.546Z,26.87
2018-11-27T01:31:01.643Z,28.53
2018-11-27T01:33:30.097Z,30.47
2018-11-27T01:35:58.206Z,26.97
2018-11-27T01:38:26.312Z,29.47
2018-11-27T01:40:54.440Z,31.13
2018-11-27T01:43:22.563Z,31.67
2018-11-27T01:45:50.647Z,28.47
2018-11-27T01:48:18.763Z,28.87
2018-11-27T01:50:46.889Z,28.23
2018-11-27T01:53:14.964Z,28.77
2018-11-27T01:55:43.043Z,27.30
2018-11-27T01:58:11.181Z,26.27
2018-11-27T02:00:39.276Z,28.90
2018-11-27T02:03:07.394Z,28.20
2018-11-27T02:05:35.573Z,28.37
2018-11-27T02:08:03.687Z,28.47
2018-11-27T02:10:31.761Z,30.67
2018-11-27T02:13:01.339Z,29.43
2018-11-27T02:15:28.777Z,30.10
2018-11-27T02:17:56.935Z,26.40
2018-11-27T02:20:25.049Z,29.80
2018-11-27T02:25:30.669Z,28.23
2018-11-27T02:27:58.759Z,30.33
2018-11-27T02:30:27.634Z,29.37
2018-11-27T02:32:55.786Z,28.87
2018-11-27T02:35:24.713Z,33.17
2018-11-27T02:37:54.760Z,26.23
2018-11-27T02:40:22.849Z,30.10
2018-11-27T02:42:50.957Z,27.17
2018-11-27T02:45:21.944Z,27.77
2018-11-27T02:47:50.874Z,26.67
2018-11-27T02:50:19.949Z,27.27
2018-11-27T02:52:48.227Z,26.80
2018-11-27T02:55:19.159Z,29.00
2018-11-27T02:57:47.258Z,28.13
2018-11-27T03:00:16.316Z,29.47
2018-11-27T03:02:44.379Z,28.80
2018-11-27T03:05:13.791Z,27.77
2018-11-27T03:07:41.882Z,31.23
2018-11-27T03:10:15.771Z,26.83
2018-11-27T03:12:43.839Z,28.40
2018-11-27T03:15:13.815Z,26.90
2018-11-27T03:17:41.913Z,26.47
2018-11-27T03:20:11.018Z,27.20
2018-11-27T03:22:39.432Z,26.13
2018-11-27T03:25:10.092Z,29.00
2018-11-27T03:27:38.276Z,26.47
2018-11-27T03:30:15.166Z,26.20
2018-11-27T03:32:43.264Z,25.57
2018-11-27T03:35:13.318Z,26.23
2018-11-27T03:37:41.585Z,27.27
2018-11-27T03:40:11.234Z,26.30
2018-11-27T03:42:39.516Z,26.50
2018-11-27T03:45:09.102Z,26.07
2018-11-27T03:47:37.240Z,24.77
2018-11-27T03:50:38.266Z,28.37
2018-11-27T03:53:06.350Z,24.70
2018-11-27T03:55:34.456Z,26.33
2018-11-27T03:58:02.580Z,26.50
2018-11-27T04:00:31.387Z,24.07
2018-11-27T04:03:01.537Z,23.20
2018-11-27T04:05:29.693Z,26.57
2018-11-27T04:07:57.785Z,26.27
2018-11-27T04:10:25.921Z,23.67
2018-11-27T04:12:54.008Z,23.93
2018-11-27T04:15:22.135Z,27.90
2018-11-27T04:17:50.216Z,24.13
2018-11-27T04:20:18.362Z,24.67
2018-11-27T04:22:46.479Z,23.83
2018-11-27T04:25:16.671Z,24.17
2018-11-27T04:27:45.529Z,26.40
2018-11-27T04:30:14.616Z,24.20
2018-11-27T04:32:42.826Z,21.73
2018-11-27T04:35:12.849Z,25.63
2018-11-27T04:37:40.995Z,23.80
2018-11-27T04:40:13.111Z,25.00
2018-11-27T04:42:41.182Z,25.37
2018-11-27T04:45:16.679Z,22.87
2018-11-27T04:47:44.816Z,23.53
2018-11-27T04:50:13.792Z,24.37
2018-11-27T04:52:42.171Z,23.77
2018-11-27T04:55:13.404Z,24.20
2018-11-27T04:57:41.766Z,26.40
2018-11-27T05:00:12.323Z,24.00
2018-11-27T05:02:40.473Z,23.40
2018-11-27T05:05:08.978Z,24.13
2018-11-27T05:07:37.411Z,24.40
2018-11-27T05:10:11.369Z,24.67
2018-11-27T05:12:40.652Z,25.53
2018-11-27T05:15:19.090Z,24.60
2018-11-27T05:17:48.429Z,25.20
2018-11-27T05:20:16.449Z,24.13
2018-11-27T05:22:44.853Z,24.03
2018-11-27T05:25:15.044Z,24.67
2018-11-27T05:27:45.206Z,22.67
2018-11-27T05:30:15.173Z,26.73
2018-11-27T05:32:43.642Z,24.17
2018-11-27T05:35:13.025Z,24.33
2018-11-27T05:37:41.959Z,24.30
2018-11-27T05:40:11.777Z,23.43
2018-11-27T05:42:39.866Z,25.47
2018-11-27T05:45:12.189Z,24.20
2018-11-27T05:47:40.382Z,24.57
2018-11-27T05:50:12.772Z,27.40
2018-11-27T05:52:40.946Z,23.70
2018-11-27T05:55:09.966Z,24.40
2018-11-27T05:57:38.534Z,24.67
2018-11-27T06:00:16.931Z,24.73
2018-11-27T06:02:45.657Z,27.07
2018-11-27T06:05:15.953Z,22.50
2018-11-27T06:07:44.085Z,27.00
2018-11-27T06:10:13.255Z,25.63
2018-11-27T06:12:41.502Z,25.07
2018-11-27T06:15:13.003Z,23.53
2018-11-27T06:17:41.488Z,26.10
2018-11-27T06:20:13.142Z,26.80
2018-11-27T06:22:41.339Z,32.13
2018-11-27T06:25:14.436Z,26.80
2018-11-27T06:27:42.599Z,26.43
2018-11-27T06:30:15.946Z,28.13
2018-11-27T06:32:44.124Z,25.83
2018-11-27T06:35:13.507Z,26.47
2018-11-27T06:37:41.665Z,29.23
2018-11-27T06:40:12.405Z,29.47
2018-11-27T06:42:40.480Z,32.00
2018-11-27T06:45:10.989Z,28.57
2018-11-27T06:47:39.096Z,29.43
2018-11-27T06:50:09.041Z,28.37
2018-11-27T06:52:37.358Z,31.50
2018-11-27T06:55:07.392Z,30.80
2018-11-27T06:57:35.532Z,29.17
2018-11-27T07:00:04.665Z,26.87
2018-11-27T07:02:32.798Z,28.00
2018-11-27T07:05:00.967Z,28.23
2018-11-27T07:07:29.925Z,27.00
2018-11-27T07:09:58.023Z,24.63
2018-11-27T07:12:26.161Z,29.93
2018-11-27T07:14:54.270Z,27.67
2018-11-27T07:17:22.362Z,25.47
2018-11-27T07:19:50.546Z,22.03
2018-11-27T07:22:19.055Z,28.00
2018-11-27T07:24:47.129Z,25.03
2018-11-27T07:27:15.261Z,30.40
2018-11-27T07:29:43.445Z,33.67
2018-11-27T07:32:11.587Z,21.37
2018-11-27T07:34:39.787Z,20.43
2018-11-27T07:37:08.235Z,23.00
2018-11-27T07:39:36.347Z,21.07
2018-11-27T07:42:04.678Z,19.77
2018-11-27T07:44:32.725Z,20.73
2018-11-27T07:47:00.848Z,20.63
2018-11-27T07:49:28.930Z,19.67
2018-11-27T07:51:57.111Z,18.93
2018-11-27T07:54:25.224Z,18.67
2018-11-27T07:56:53.313Z,17.83
2018-11-27T07:59:21.419Z,23.90
2018-11-27T08:01:49.517Z,23.00
2018-11-27T08:04:17.654Z,24.50
2018-11-27T08:06:45.790Z,25.00
2018-11-27T08:09:13.867Z,20.07
2018-11-27T08:11:42.097Z,21.73
2018-11-27T08:14:10.164Z,19.53
2018-11-27T08:16:38.273Z,25.27
2018-11-27T08:19:06.385Z,19.97
2018-11-27T08:21:34.478Z,20.53
2018-11-27T08:24:02.585Z,20.23
2018-11-27T08:26:30.669Z,19.17
2018-11-27T08:28:58.779Z,19.53
2018-11-27T08:31:26.966Z,23.73
2018-11-27T08:33:55.028Z,21.30
2018-11-27T08:36:23.098Z,19.73
2018-11-27T08:38:51.182Z,20.73
2018-11-27T08:41:19.314Z,17.33
2018-11-27T08:43:47.440Z,19.40
2018-11-27T08:46:15.554Z,18.33
2018-11-27T08:48:43.659Z,18.77
2018-11-27T08:51:11.730Z,20.53
2018-11-27T08:53:39.819Z,16.07
2018-11-27T08:56:08.123Z,27.47
2018-11-27T08:58:36.338Z,17.23
2018-11-27T09:01:04.438Z,18.17
2018-11-27T09:03:32.687Z,17.10
2018-11-27T09:06:00.761Z,19.13
2018-11-27T09:08:28.848Z,15.07
2018-11-27T09:10:56.926Z,16.97
2018-11-27T09:13:25.044Z,18.27
2018-11-27T09:15:53.148Z,17.10
2018-11-27T09:18:22.875Z,15.13
2018-11-27T09:20:50.995Z,15.00
2018-11-27T09:23:19.106Z,18.17
2018-11-27T09:25:47.174Z,13.80
2018-11-27T09:28:15.251Z,15.97
2018-11-27T09:30:43.303Z,14.90
2018-11-27T09:33:11.429Z,14.57
2018-11-27T09:35:39.467Z,15.57
2018-11-27T09:38:08.135Z,20.93
2018-11-27T09:40:36.624Z,17.93
2018-11-27T09:43:05.459Z,14.10
2018-11-27T09:45:33.552Z,15.83
2018-11-27T09:48:01.768Z,18.37
2018-11-27T09:50:29.854Z,20.80
2018-11-27T09:52:57.961Z,16.37
2018-11-27T09:55:26.921Z,14.40
2018-11-27T09:57:59.150Z,17.40
2018-11-27T16:55:36.667Z,17.70
2018-11-27T16:58:22.618Z,21.10
2018-11-27T17:00:50.719Z,23.03
2018-11-27T17:03:19.034Z,20.40
2018-11-27T17:05:47.274Z,20.33
2018-11-27T17:08:16.545Z,20.40
2018-11-27T17:10:48.209Z,19.67
2018-11-27T17:13:16.404Z,18.57
2018-11-27T17:15:46.733Z,25.43
2018-11-27T17:18:15.936Z,23.00
2018-11-27T17:20:45.202Z,24.60
2018-11-27T17:23:15.555Z,22.67
2018-11-27T17:25:43.738Z,20.67
2018-11-27T17:28:16.913Z,22.30
2018-11-27T17:30:52.272Z,20.83
2018-11-27T17:33:22.769Z,26.80
2018-11-27T17:35:50.857Z,21.67
2018-11-27T17:38:19.111Z,24.03
2018-11-27T17:40:47.209Z,22.00
2018-11-27T17:43:15.277Z,20.40
2018-11-27T17:45:43.382Z,20.33
2018-11-27T17:48:11.509Z,20.63
2018-11-27T17:50:39.616Z,22.90
2018-11-27T17:53:07.684Z,20.40
2018-11-27T17:55:35.786Z,25.63
2018-11-27T17:58:04.440Z,21.97
2018-11-27T18:00:32.605Z,20.43
2018-11-27T18:03:03.568Z,26.80
2018-11-27T18:05:31.770Z,24.90
2018-11-27T18:08:00.730Z,26.40
2018-11-27T18:10:28.022Z,36.70
2018-11-27T18:12:56.188Z,25.60
2018-11-27T18:15:24.277Z,26.87
2018-11-27T18:17:52.603Z,23.70
2018-11-27T18:20:20.945Z,27.10
2018-11-27T18:22:49.102Z,27.00
2018-11-27T18:25:18.415Z,24.77
2018-11-27T18:27:47.425Z,27.90
2018-11-27T18:30:16.596Z,26.77
2018-11-27T18:32:44.712Z,25.27
2018-11-27T18:35:15.884Z,24.73
2018-11-27T18:37:44.166Z,22.63
2018-11-27T18:40:13.322Z,18.97
2018-11-27T18:42:41.629Z,20.47
2018-11-27T18:45:20.561Z,20.23
2018-11-27T18:47:48.656Z,21.97
2018-11-27T18:50:16.799Z,25.37
2018-11-27T18:52:45.076Z,26.43
2018-11-27T18:55:14.070Z,24.20
2018-11-27T18:57:42.994Z,24.17
2018-11-27T19:00:28.089Z,23.20
2018-11-27T19:02:56.186Z,20.53
2018-11-27T19:05:24.255Z,24.63
2018-11-27T19:07:53.441Z,21.47
2018-11-27T19:10:23.589Z,20.47
2018-11-27T19:12:51.725Z,23.73
2018-11-27T19:15:22.106Z,25.73
2018-11-27T19:17:52.157Z,30.30
2018-11-27T19:20:20.240Z,24.63
2018-11-27T19:22:48.373Z,21.07
2018-11-27T19:25:16.812Z,25.90
2018-11-27T19:27:44.892Z,26.77
2018-11-27T19:30:17.198Z,22.83
2018-11-27T19:32:45.390Z,28.17
2018-11-27T19:35:15.048Z,21.20
2018-11-27T19:37:43.900Z,20.83
2018-11-27T19:40:13.407Z,18.07
2018-11-27T19:42:41.792Z,20.50
2018-11-27T19:45:15.213Z,19.07
2018-11-27T19:47:43.431Z,19.83
2018-11-27T19:50:13.255Z,18.47
2018-11-27T19:52:42.264Z,18.60
2018-11-27T19:55:12.588Z,19.03
2018-11-27T19:57:40.662Z,17.03
2018-11-27T20:00:19.581Z,19.20
2018-11-27T20:02:47.769Z,22.17
2018-11-27T20:05:17.185Z,18.40
2018-11-27T20:07:45.304Z,20.20
2018-11-27T20:10:14.250Z,20.87
2018-11-27T20:12:42.401Z,23.17
2018-11-27T20:15:24.263Z,21.20
2018-11-27T20:17:53.020Z,20.77
2018-11-27T20:20:23.244Z,20.37
2018-11-27T20:22:51.459Z,18.73
2018-11-27T20:25:20.788Z,21.30
2018-11-27T20:27:48.901Z,19.20
2018-11-27T20:30:18.899Z,19.80
2018-11-27T20:32:52.574Z,18.83
2018-11-27T20:35:21.779Z,18.70
2018-11-27T20:37:50.781Z,15.47
2018-11-27T20:40:19.606Z,14.30
2018-11-27T20:42:47.841Z,17.27
2018-11-27T20:45:19.600Z,17.07
2018-11-27T20:47:48.422Z,16.90
2018-11-27T20:50:24.201Z,16.90
2018-11-27T20:52:52.282Z,22.27
2018-11-27T20:55:21.008Z,17.00
2018-11-27T20:57:52.742Z,17.63
2018-11-27T21:00:23.174Z,18.40
2018-11-27T21:03:00.151Z,17.80
2018-11-27T21:05:28.283Z,17.83
2018-11-27T21:07:56.370Z,18.60
2018-11-27T21:10:24.697Z,18.97
2018-11-27T21:12:52.789Z,18.93
2018-11-27T21:15:20.978Z,20.37
2018-11-27T21:17:49.080Z,21.33
2018-11-27T21:20:17.497Z,21.07
2018-11-27T21:22:45.576Z,21.97
2018-11-27T21:25:16.734Z,19.47
2018-11-27T21:27:46.428Z,23.43
2018-11-27T21:30:15.765Z,20.47
2018-11-27T21:32:43.946Z,18.10
2018-11-27T21:35:14.153Z,16.90
2018-11-27T21:37:42.273Z,25.13
2018-11-27T21:40:12.534Z,20.97
2018-11-27T21:42:40.604Z,20.30
2018-11-27T21:45:12.089Z,21.77
2018-11-27T21:47:40.198Z,19.47
2018-11-27T21:50:10.289Z,22.20
2018-11-27T21:52:38.430Z,18.53
2018-11-27T21:55:09.601Z,21.57
2018-11-27T21:57:37.695Z,17.63
2018-11-27T22:00:11.134Z,17.00
2018-11-27T22:02:39.244Z,17.30
2018-11-27T22:05:08.109Z,17.13
2018-11-27T22:07:36.580Z,18.93
2018-11-27T22:10:08.163Z,24.57
2018-11-27T22:12:36.348Z,22.87
2018-11-27T22:15:06.536Z,27.13
2018-11-27T22:17:34.665Z,26.90
2018-11-27T22:20:02.813Z,20.33
2018-11-27T22:22:30.955Z,24.20
2018-11-27T22:24:59.417Z,19.63
2018-11-27T22:27:27.551Z,19.83
2018-11-27T22:29:55.764Z,20.60
2018-11-27T22:32:23.871Z,17.73
2018-11-27T22:34:51.920Z,19.47
2018-11-27T22:37:20.021Z,16.03
2018-11-27T22:39:48.053Z,18.47
2018-11-27T22:42:16.569Z,18.53
2018-11-27T22:44:44.649Z,18.10
2018-11-27T22:47:12.780Z,18.63
2018-11-27T22:49:40.887Z,19.03
2018-11-27T22:52:09.028Z,19.40
2018-11-27T22:54:37.094Z,16.83
2018-11-27T22:57:05.179Z,21.80
2018-11-27T22:59:33.280Z,20.83
2018-11-27T23:02:01.519Z,19.30
2018-11-27T23:04:29.632Z,22.03
2018-11-27T23:06:57.700Z,21.53
2018-11-27T23:09:25.811Z,19.93
2018-11-27T23:11:53.896Z,17.43
2018-11-27T23:14:22.097Z,19.33
2018-11-27T23:16:50.235Z,20.47
2018-11-27T23:19:18.335Z,20.60
2018-11-27T23:21:46.398Z,19.70
2018-11-27T23:24:14.504Z,16.77
2018-11-27T23:26:42.596Z,18.23
2018-11-27T23:29:10.693Z,17.30
2018-11-27T23:31:38.786Z,20.27
2018-11-27T23:34:06.918Z,22.13
2018-11-27T23:36:35.064Z,24.73
2018-11-27T23:39:03.377Z,22.70
2018-11-27T23:41:31.446Z,19.70
2018-11-27T23:43:59.561Z,18.87
2018-11-27T23:46:27.638Z,18.37
2018-11-27T23:48:55.719Z,18.90
2018-11-27T23:51:23.802Z,20.57
2018-11-27T23:53:51.949Z,20.20
2018-11-27T23:56:20.060Z,20.07
2018-11-27T23:58:48.183Z,19.13
